Time;durP1;ratioP1;P1;durP2;ratioP2;P2;SDS_P1;SDS_P2;PMS_P1;PMS_P2;Temp;Humidity;BMP_temperature;BMP_pressure;BME280_temperature;BME280_humidity;BME280_pressure;Samples;Min_cycle;Max_cycle;Signal;HPM_P1;HPM_P2
2024/01/10 00:01:06;;;;;;;0.10;0.10;;;;;;;-3.08;59.18;103343.53;5093468;27;96764;-27
2024/01/10 00:03:32;;;;;;;0.00;0.00;;;;;;;-3.12;59.48;103335.44;5093224;27;99348;-27
2024/01/10 00:05:57;;;;;;;0.00;0.00;;;;;;;-3.14;59.32;103331.84;5093283;27;98631;-28
2024/01/10 00:08:22;;;;;;;0.30;0.30;;;;;;;-3.09;59.81;103325.84;5093608;27;96497;-27
2024/01/10 00:10:48;;;;;;;0.75;0.43;;;;;;;-3.10;59.47;103315.19;5093807;27;96784;-28
2024/01/10 00:13:13;;;;;;;0.00;0.00;;;;;;;-3.08;58.99;103334.69;5093679;27;99549;-28
2024/01/10 00:15:38;;;;;;;0.95;0.75;;;;;;;-3.08;59.26;103330.28;5093297;27;97335;-27
2024/01/10 00:18:04;;;;;;;0.00;0.00;;;;;;;-3.13;59.33;103323.03;5092594;27;96609;-27
2024/01/10 00:20:29;;;;;;;0.00;0.00;;;;;;;-3.04;59.72;103329.56;5093443;27;96801;-27
2024/01/10 00:22:54;;;;;;;0.00;0.00;;;;;;;-3.04;59.43;103321.59;5092987;27;98926;-27
2024/01/10 00:25:20;;;;;;;0.00;0.00;;;;;;;-3.06;59.79;103328.59;5093239;27;96466;-27
2024/01/10 00:27:45;;;;;;;1.17;0.60;;;;;;;-3.11;59.78;103316.94;5093220;27;96737;-27
2024/01/10 00:30:10;;;;;;;0.20;0.20;;;;;;;-3.11;60.30;103314.28;5093235;27;96842;-27
2024/01/10 00:32:36;;;;;;;0.00;0.00;;;;;;;-3.10;59.99;103310.81;5093170;27;97874;-27
2024/01/10 00:35:01;;;;;;;0.17;0.17;;;;;;;-3.09;59.68;103320.56;5093284;27;99352;-27
2024/01/10 00:37:27;;;;;;;0.22;0.15;;;;;;;-3.13;59.85;103315.97;5093464;27;96628;-27
2024/01/10 00:39:52;;;;;;;0.55;0.55;;;;;;;-3.13;60.16;103317.75;5093150;27;96768;-27
2024/01/10 00:42:18;;;;;;;0.90;0.30;;;;;;;-3.15;60.28;103309.72;5092686;27;97153;-27
2024/01/10 00:44:43;;;;;;;0.15;0.15;;;;;;;-3.15;60.44;103303.53;5092871;27;99514;-27
2024/01/10 00:47:10;;;;;;;0.00;0.00;;;;;;;-3.22;60.62;103299.75;5092691;27;97077;-28
2024/01/10 00:49:36;;;;;;;0.00;0.00;;;;;;;-3.24;60.61;103310.31;5074504;27;96901;-27
2024/01/10 00:52:01;;;;;;;0.10;0.05;;;;;;;-3.23;60.90;103314.75;5092405;27;99568;-28
2024/01/10 00:54:27;;;;;;;0.47;0.28;;;;;;;-3.25;60.71;103313.81;5092769;27;99872;-27
2024/01/10 00:56:52;;;;;;;0.05;0.05;;;;;;;-3.30;61.34;103303.91;5092928;27;96778;-26
2024/01/10 00:59:17;;;;;;;0.28;0.25;;;;;;;-3.32;60.92;103303.84;5096843;27;96787;-27
2024/01/10 01:01:43;;;;;;;0.00;0.00;;;;;;;-3.26;60.65;103301.41;5095636;27;97581;-27
2024/01/10 01:04:08;;;;;;;0.22;0.22;;;;;;;-3.24;61.11;103299.72;5096548;27;97287;-27
2024/01/10 01:06:33;;;;;;;0.10;0.10;;;;;;;-3.28;61.69;103294.25;5095906;27;96565;-27
2024/01/10 01:08:58;;;;;;;0.00;0.00;;;;;;;-3.24;61.54;103299.72;5096104;27;98580;-27
2024/01/10 01:11:24;;;;;;;0.30;0.30;;;;;;;-3.24;61.61;103299.72;5096141;27;99317;-27
2024/01/10 01:13:50;;;;;;;0.20;0.17;;;;;;;-3.24;61.83;103293.53;5096064;27;99476;-27
2024/01/10 01:16:15;;;;;;;0.00;0.00;;;;;;;-3.28;61.70;103294.25;5096056;27;97287;-27
2024/01/10 01:18:45;;;;;;;0.10;0.10;;;;;;;-3.31;61.88;103299.44;5096122;27;96830;-27
2024/01/10 01:21:10;;;;;;;0.47;0.47;;;;;;;-3.35;62.02;103290.47;5077349;27;101108;-27
2024/01/10 01:23:35;;;;;;;0.10;0.10;;;;;;;-3.30;62.15;103293.31;5096614;27;97799;-27
2024/01/10 01:26:01;;;;;;;1.02;0.43;;;;;;;-3.31;61.84;103294.13;5096038;27;100250;-27
2024/01/10 01:28:26;;;;;;;0.25;0.25;;;;;;;-3.32;62.07;103289.69;5096299;27;96738;-27
2024/01/10 01:30:51;;;;;;;0.65;0.22;;;;;;;-3.31;62.47;103291.47;5095090;27;99167;-27
2024/01/10 01:33:17;;;;;;;0.28;0.25;;;;;;;-3.39;62.63;103285.03;5095684;27;107182;-28
2024/01/10 01:35:42;;;;;;;0.20;0.17;;;;;;;-3.33;62.59;103291.44;5095832;27;96504;-27
2024/01/10 01:38:07;;;;;;;0.00;0.00;;;;;;;-3.30;62.52;103282.69;5095786;27;96837;-27
2024/01/10 01:40:33;;;;;;;0.20;0.15;;;;;;;-3.35;62.87;103297.53;5095821;27;98083;-27
2024/01/10 01:42:58;;;;;;;0.10;0.10;;;;;;;-3.35;62.76;103289.59;5095445;27;102073;-27
2024/01/10 01:45:24;;;;;;;0.05;0.05;;;;;;;-3.35;62.58;103279.00;5095626;27;96582;-27
2024/01/10 01:47:50;;;;;;;0.17;0.17;;;;;;;-3.36;62.93;103293.06;5095736;27;96802;-26
2024/01/10 01:50:16;;;;;;;0.30;0.10;;;;;;;-3.35;63.07;103293.13;5076843;27;101082;-27
2024/01/10 01:52:43;;;;;;;0.00;0.00;;;;;;;-3.40;62.97;103281.47;5095265;27;99808;-27
2024/01/10 01:55:10;;;;;;;0.10;0.10;;;;;;;-3.34;62.99;103294.03;5076613;27;97089;-27
2024/01/10 01:57:37;;;;;;;0.30;0.25;;;;;;;-3.37;63.71;103280.69;5077019;27;97051;-27
2024/01/10 02:00:04;;;;;;;0.00;0.00;;;;;;;-3.34;63.26;103292.28;5076979;27;98991;-27
2024/01/10 02:02:30;;;;;;;1.20;0.73;;;;;;;-3.35;63.03;103281.63;5076353;27;99110;-30
2024/01/10 02:04:56;;;;;;;0.00;0.00;;;;;;;-3.30;63.48;103290.66;5095483;27;96541;-29
2024/01/10 02:07:21;;;;;;;0.93;0.85;;;;;;;-3.33;63.18;103288.78;5095454;27;96932;-27
2024/01/10 02:09:47;;;;;;;0.05;0.05;;;;;;;-3.39;63.55;103292.97;5094229;27;99261;-27
2024/01/10 02:12:13;;;;;;;0.00;0.00;;;;;;;-3.42;63.59;103270.81;5095643;27;98598;-27
2024/01/10 02:14:38;;;;;;;0.28;0.28;;;;;;;-3.36;63.71;103278.09;5095320;27;96593;-28
2024/01/10 02:17:03;;;;;;;0.70;0.70;;;;;;;-3.31;63.80;103278.22;5095222;27;96789;-27
2024/01/10 02:19:30;;;;;;;0.00;0.00;;;;;;;-3.32;64.24;103279.09;5094536;27;99122;-27
2024/01/10 02:21:56;;;;;;;0.17;0.15;;;;;;;-3.28;64.06;103273.06;5095000;27;99165;-27
2024/01/10 02:24:21;;;;;;;0.15;0.15;;;;;;;-3.31;63.81;103280.88;5095394;27;96691;-27
2024/01/10 02:26:47;;;;;;;0.03;0.03;;;;;;;-3.37;63.84;103278.94;5095346;27;96729;-27
2024/01/10 02:29:13;;;;;;;0.00;0.00;;;;;;;-3.31;64.37;103270.28;5076022;27;100297;-27
2024/01/10 02:31:38;;;;;;;0.00;0.00;;;;;;;-3.32;64.64;103263.19;5095183;27;97273;-27
2024/01/10 02:34:04;;;;;;;0.35;0.22;;;;;;;-3.38;64.33;103255.00;5095291;27;97081;-27
2024/01/10 02:36:29;;;;;;;0.00;0.00;;;;;;;-3.32;64.21;103268.50;5095849;27;96585;-27
2024/01/10 02:38:55;;;;;;;1.00;0.80;;;;;;;-3.37;64.66;103256.84;5094796;27;98711;-27
2024/01/10 02:41:20;;;;;;;0.22;0.22;;;;;;;-3.34;64.78;103268.44;5094727;27;99209;-28
2024/01/10 02:43:46;;;;;;;0.25;0.25;;;;;;;-3.31;64.24;103267.63;5075746;27;96744;-27
2024/01/10 02:46:11;;;;;;;0.10;0.08;;;;;;;-3.34;64.44;103259.59;5094659;27;96824;-27
2024/01/10 02:48:36;;;;;;;0.00;0.00;;;;;;;-3.38;64.56;103253.28;5094851;27;97394;-29
2024/01/10 02:51:02;;;;;;;0.10;0.10;;;;;;;-3.36;64.60;103261.28;5094520;27;97755;-27
2024/01/10 02:53:27;;;;;;;0.00;0.00;;;;;;;-3.38;64.84;103257.66;5095048;27;96587;-28
2024/01/10 02:55:52;;;;;;;0.00;0.00;;;;;;;-3.42;64.97;103254.03;5094565;27;101143;-27
2024/01/10 02:58:18;;;;;;;0.10;0.10;;;;;;;-3.38;64.88;103252.38;5094547;27;99156;-27
2024/01/10 03:00:43;;;;;;;0.25;0.25;;;;;;;-3.42;64.69;103251.38;5076124;27;101232;-28
2024/01/10 03:03:09;;;;;;;0.40;0.40;;;;;;;-3.38;65.21;103248.00;5094191;27;96845;-27
2024/01/10 03:05:34;;;;;;;0.25;0.25;;;;;;;-3.36;65.17;103245.38;5094490;27;96913;-27
2024/01/10 03:08:01;;;;;;;0.17;0.17;;;;;;;-3.40;65.02;103244.38;5093707;27;99258;-27
2024/01/10 03:10:26;;;;;;;0.00;0.00;;;;;;;-3.39;65.00;103255.88;5075721;27;100999;-27
2024/01/10 03:12:52;;;;;;;0.00;0.00;;;;;;;-3.44;64.53;103240.72;5094298;27;96580;-27
2024/01/10 03:15:18;;;;;;;0.10;0.10;;;;;;;-3.52;64.89;103241.31;5075697;27;96818;-27
2024/01/10 03:17:43;;;;;;;0.05;0.05;;;;;;;-3.55;64.79;103236.81;5094097;27;99855;-27
2024/01/10 03:20:09;;;;;;;0.22;0.22;;;;;;;-3.49;65.13;103244.94;5093879;27;105017;-27
2024/01/10 03:22:34;;;;;;;0.00;0.00;;;;;;;-3.48;65.06;103240.53;5094109;27;96455;-27
2024/01/10 03:25:00;;;;;;;0.57;0.45;;;;;;;-3.48;65.20;103244.13;5075933;27;96820;-27
2024/01/10 03:27:26;;;;;;;0.10;0.10;;;;;;;-3.51;65.27;103240.44;5094359;27;97460;-28
2024/01/10 03:29:51;;;;;;;0.00;0.00;;;;;;;-3.57;65.03;103235.84;5075466;27;100753;-28
2024/01/10 03:32:16;;;;;;;1.00;0.47;;;;;;;-3.59;64.73;103248.13;5093636;27;96508;-27
2024/01/10 03:34:42;;;;;;;0.95;0.77;;;;;;;-3.58;64.82;103233.13;5094443;27;96761;-27
2024/01/10 03:37:07;;;;;;;0.80;0.40;;;;;;;-3.68;65.17;103231.91;5075322;27;101119;-27
2024/01/10 03:39:33;;;;;;;0.00;0.00;;;;;;;-3.68;65.27;103232.81;5094082;27;97756;-27
2024/01/10 03:41:59;;;;;;;0.57;0.57;;;;;;;-3.65;65.54;103232.00;5094065;27;96627;-33
2024/01/10 03:44:26;;;;;;;0.13;0.10;;;;;;;-3.74;65.23;103216.72;5093669;27;99743;-28
2024/01/10 03:46:51;;;;;;;0.32;0.20;;;;;;;-3.72;65.31;103217.69;5074906;27;100843;-28
2024/01/10 03:49:17;;;;;;;0.20;0.20;;;;;;;-3.67;65.37;103223.09;5094306;27;97317;-27
2024/01/10 03:51:43;;;;;;;0.32;0.32;;;;;;;-3.89;65.51;103210.84;5093448;27;96746;-27
2024/01/10 03:54:08;;;;;;;0.17;0.10;;;;;;;-3.92;66.46;103227.53;5093692;27;96800;-27
2024/01/10 03:56:33;;;;;;;0.00;0.00;;;;;;;-3.97;66.61;103217.63;5093274;27;97912;-30
2024/01/10 03:59:01;;;;;;;0.20;0.20;;;;;;;-4.04;66.77;103216.50;5093498;27;97817;-27
2024/01/10 04:01:26;;;;;;;0.25;0.17;;;;;;;-4.06;66.98;103203.19;5074623;27;96764;-28
2024/01/10 04:03:52;;;;;;;0.32;0.28;;;;;;;-4.05;67.59;103206.78;5093783;27;96743;-27
2024/01/10 04:06:17;;;;;;;0.00;0.00;;;;;;;-4.07;67.52;103190.81;5093532;27;97845;-27
2024/01/10 04:08:42;;;;;;;0.22;0.22;;;;;;;-4.00;67.37;103196.31;5093336;27;99096;-27
2024/01/10 04:11:08;;;;;;;0.00;0.00;;;;;;;-4.04;67.74;103195.31;5093756;27;96509;-27
2024/01/10 04:13:34;;;;;;;0.00;0.00;;;;;;;-4.11;67.50;103183.59;5075283;27;96900;-27
2024/01/10 04:16:00;;;;;;;0.30;0.30;;;;;;;-4.04;67.62;103195.31;5093238;27;99486;-28
2024/01/10 04:18:25;;;;;;;0.00;0.00;;;;;;;-4.05;67.60;103198.84;5093581;27;97912;-28
2024/01/10 04:20:51;;;;;;;1.65;1.45;;;;;;;-4.10;67.97;103189.78;5092681;27;96568;-27
2024/01/10 04:23:16;;;;;;;0.35;0.30;;;;;;;-4.08;68.76;103188.09;5093649;27;96788;-26
2024/01/10 04:25:41;;;;;;;0.50;0.50;;;;;;;-4.06;67.74;103199.66;5093252;27;99853;-28
2024/01/10 04:28:06;;;;;;;0.00;0.00;;;;;;;-4.13;67.99;103187.03;5093218;27;99738;-27
2024/01/10 04:30:32;;;;;;;1.25;1.05;;;;;;;-4.14;67.55;103186.16;5093808;27;96564;-28
2024/01/10 04:32:58;;;;;;;0.57;0.55;;;;;;;-4.14;67.93;103182.59;5095006;27;96646;-27
2024/01/10 04:35:23;;;;;;;0.55;0.45;;;;;;;-4.06;68.20;103191.72;5097273;27;97351;-27
2024/01/10 04:37:48;;;;;;;0.10;0.10;;;;;;;-4.05;68.64;103188.25;5097125;27;99217;-27
2024/01/10 04:40:14;;;;;;;0.20;0.20;;;;;;;-4.02;67.80;103185.69;5096735;27;100871;-27
2024/01/10 04:42:40;;;;;;;0.00;0.00;;;;;;;-4.05;68.59;103188.25;5096468;27;96844;-27
2024/01/10 04:45:07;;;;;;;0.00;0.00;;;;;;;-3.97;68.36;103189.41;5095986;27;99092;-28
2024/01/10 04:47:32;;;;;;;0.05;0.05;;;;;;;-3.98;68.71;103184.97;5077549;27;100892;-27
2024/01/10 04:49:58;;;;;;;0.30;0.25;;;;;;;-4.00;69.21;103191.03;5097104;27;96621;-27
2024/01/10 04:52:23;;;;;;;0.10;0.10;;;;;;;-4.03;68.57;103185.63;5096364;27;96799;-27
2024/01/10 04:54:49;;;;;;;0.32;0.32;;;;;;;-4.06;68.18;103194.34;5096341;27;100415;-27
2024/01/10 04:57:15;;;;;;;0.03;0.03;;;;;;;-4.13;68.97;103182.66;5096518;27;98441;-28
2024/01/10 04:59:41;;;;;;;0.05;0.03;;;;;;;-4.13;68.43;103187.03;5077881;27;96650;-27
2024/01/10 05:02:07;;;;;;;0.45;0.45;;;;;;;-4.11;68.59;103191.53;5077929;27;96794;-27
2024/01/10 05:04:32;;;;;;;0.03;0.03;;;;;;;-4.10;68.42;103192.44;5096479;27;98119;-27
2024/01/10 05:06:57;;;;;;;0.73;0.38;;;;;;;-4.11;68.75;103191.53;5096432;27;97444;-27
2024/01/10 05:09:23;;;;;;;0.15;0.15;;;;;;;-4.15;68.18;103179.03;5096300;27;96539;-27
2024/01/10 05:11:51;;;;;;;0.75;0.30;;;;;;;-4.12;68.83;103188.88;5096446;27;96734;-27
2024/01/10 05:14:16;;;;;;;0.35;0.05;;;;;;;-4.16;68.86;103186.94;5096033;27;98967;-27
2024/01/10 05:16:41;;;;;;;0.00;0.00;;;;;;;-4.22;69.29;103177.00;5096251;27;97831;-27
2024/01/10 05:19:07;;;;;;;1.00;0.95;;;;;;;-4.19;69.10;103184.19;5096469;27;96639;-27
2024/01/10 05:21:32;;;;;;;0.15;0.15;;;;;;;-4.22;68.63;103176.13;5096342;27;96771;-27
2024/01/10 05:23:58;;;;;;;0.15;0.15;;;;;;;-4.15;68.70;103191.38;5077419;27;100726;-27
2024/01/10 05:26:23;;;;;;;0.70;0.70;;;;;;;-4.21;68.72;103185.88;5096265;27;98351;-27
2024/01/10 05:28:49;;;;;;;0.05;0.05;;;;;;;-4.24;68.94;103180.44;5096272;27;97101;-27
2024/01/10 05:31:14;;;;;;;0.30;0.30;;;;;;;-4.21;68.60;103181.47;5096337;27;96796;-27
2024/01/10 05:33:39;;;;;;;0.30;0.30;;;;;;;-4.24;68.81;103176.09;5095194;27;106030;-28
2024/01/10 05:36:05;;;;;;;0.17;0.10;;;;;;;-4.31;68.83;103171.41;5095690;27;103358;-27
2024/01/10 05:38:30;;;;;;;0.10;0.10;;;;;;;-4.28;68.54;103183.00;5095795;27;96624;-27
2024/01/10 05:40:55;;;;;;;0.08;0.08;;;;;;;-4.32;68.65;103177.53;5095762;27;98152;-27
2024/01/10 05:43:21;;;;;;;0.00;0.00;;;;;;;-4.24;69.28;103183.09;5095124;27;97337;-27
2024/01/10 05:45:47;;;;;;;0.98;0.55;;;;;;;-4.26;68.86;103169.81;5094708;27;99615;-28
2024/01/10 05:48:12;;;;;;;0.00;0.00;;;;;;;-4.33;68.62;103171.34;5095809;27;96647;-27
2024/01/10 05:50:39;;;;;;;0.17;0.17;;;;;;;-4.29;68.59;103186.50;5096314;27;96827;-27
2024/01/10 05:53:04;;;;;;;0.00;0.00;;;;;;;-4.27;69.98;103187.44;5076720;27;100923;-27
2024/01/10 05:55:29;;;;;;;0.10;0.10;;;;;;;-4.30;69.60;103179.38;5095564;27;97362;-28
2024/01/10 05:57:55;;;;;;;3.70;0.47;;;;;;;-4.22;69.03;103184.94;5095262;27;96595;-28
2024/01/10 06:00:20;;;;;;;0.00;0.00;;;;;;;-4.30;68.92;103170.53;5095666;27;99231;-28
2024/01/10 06:02:46;;;;;;;0.10;0.10;;;;;;;-4.21;69.60;103186.78;5076566;27;101275;-28
2024/01/10 06:05:12;;;;;;;0.00;0.00;;;;;;;-4.21;68.96;103178.84;5095345;27;97734;-28
2024/01/10 06:07:39;;;;;;;0.80;0.80;;;;;;;-4.23;68.76;103175.22;5095760;27;96504;-27
2024/01/10 06:10:05;;;;;;;0.10;0.10;;;;;;;-4.23;68.84;103174.31;5095847;27;96772;-27
2024/01/10 06:12:30;;;;;;;0.43;0.38;;;;;;;-4.25;69.30;103176.91;5095494;27;97782;-28
2024/01/10 06:14:57;;;;;;;0.88;0.65;;;;;;;-4.25;68.92;103168.97;5096121;27;97291;-27
2024/01/10 06:17:22;;;;;;;0.10;0.10;;;;;;;-4.27;68.97;103170.66;5095514;27;96639;-27
2024/01/10 06:19:47;;;;;;;0.00;0.00;;;;;;;-4.24;69.44;103169.84;5095434;27;96762;-27
2024/01/10 06:22:13;;;;;;;0.45;0.38;;;;;;;-4.33;69.19;103168.69;5094681;27;99810;-27
2024/01/10 06:24:39;;;;;;;0.85;0.70;;;;;;;-4.29;70.03;103178.56;5094925;27;99361;-28
2024/01/10 06:27:05;;;;;;;0.30;0.30;;;;;;;-4.32;69.56;103162.53;5095183;27;96578;-28
2024/01/10 06:29:31;;;;;;;0.28;0.22;;;;;;;-4.27;69.08;103171.56;5076632;27;96794;-28
2024/01/10 06:31:57;;;;;;;0.10;0.10;;;;;;;-4.31;68.89;103167.00;5094935;27;99367;-27
2024/01/10 06:34:23;;;;;;;0.40;0.32;;;;;;;-4.35;69.43;103165.09;5076450;27;101206;-27
2024/01/10 06:36:48;;;;;;;0.60;0.60;;;;;;;-4.36;69.18;103167.66;5095065;27;96471;-28
2024/01/10 06:39:14;;;;;;;0.15;0.15;;;;;;;-4.39;69.47;103165.81;5095420;27;96566;-28
2024/01/10 06:41:39;;;;;;;0.20;0.20;;;;;;;-4.37;69.03;103174.69;5094737;27;99570;-27
2024/01/10 06:44:05;;;;;;;0.00;0.00;;;;;;;-4.36;69.19;103183.53;5094704;27;99793;-27
2024/01/10 06:46:31;;;;;;;0.40;0.40;;;;;;;-4.36;68.68;103188.81;5094051;27;97924;-27
2024/01/10 06:48:57;;;;;;;0.63;0.55;;;;;;;-4.32;69.43;103189.00;5076247;27;96776;-27
2024/01/10 06:51:23;;;;;;;0.10;0.10;;;;;;;-4.33;69.08;103178.38;5075578;27;100765;-27
2024/01/10 06:53:48;;;;;;;0.52;0.52;;;;;;;-4.34;69.16;103180.13;5094438;27;99077;-27
2024/01/10 06:56:13;;;;;;;0.00;0.00;;;;;;;-4.31;68.90;103184.63;5094686;27;96509;-27
2024/01/10 06:58:39;;;;;;;0.00;0.00;;;;;;;-4.24;69.24;103184.03;5094641;27;96884;-27
2024/01/10 07:01:05;;;;;;;0.10;0.10;;;;;;;-4.24;68.86;103185.75;5075682;27;100527;-28
2024/01/10 07:03:32;;;;;;;0.38;0.28;;;;;;;-4.28;69.02;103183.00;5094841;27;99828;-27
2024/01/10 07:05:58;;;;;;;0.90;0.82;;;;;;;-4.29;69.06;103178.56;5075907;27;96751;-27
2024/01/10 07:08:25;;;;;;;1.45;1.35;;;;;;;-4.29;68.90;103180.28;5094517;27;96746;-28
2024/01/10 07:10:50;;;;;;;0.82;0.63;;;;;;;-4.32;69.14;103173.13;5093594;27;99043;-27
2024/01/10 07:13:15;;;;;;;0.10;0.10;;;;;;;-4.22;68.70;103182.31;5094223;27;103666;-27
2024/01/10 07:15:41;;;;;;;1.25;1.10;;;;;;;-4.12;68.92;103179.16;5094230;27;96529;-27
2024/01/10 07:18:06;;;;;;;0.95;0.93;;;;;;;-4.11;68.63;103178.31;5076114;27;96831;-27
2024/01/10 07:20:32;;;;;;;1.33;1.02;;;;;;;-4.12;68.18;103181.81;5094347;27;98028;-27
2024/01/10 07:22:59;;;;;;;1.40;1.30;;;;;;;-4.03;68.52;103185.63;5093832;27;99152;-27
2024/01/10 07:25:25;;;;;;;1.35;1.27;;;;;;;-4.10;68.53;103182.78;5094074;27;96519;-27
2024/01/10 07:27:51;;;;;;;1.20;1.15;;;;;;;-4.10;68.30;103179.22;5075984;27;96805;-27
2024/01/10 07:30:16;;;;;;;2.53;0.93;;;;;;;-4.12;67.79;103181.81;5075407;27;100976;-27
2024/01/10 07:32:43;;;;;;;0.50;0.45;;;;;;;-4.17;68.22;103180.75;5094212;27;97932;-27
2024/01/10 07:35:09;;;;;;;0.40;0.40;;;;;;;-4.13;68.53;103174.72;5075066;27;97234;-28
2024/01/10 07:37:39;;;;;;;0.38;0.38;;;;;;;-4.17;68.27;103185.13;5075237;27;96775;-28
2024/01/10 07:40:06;;;;;;;0.40;0.32;;;;;;;-4.14;68.17;103187.91;5075308;27;99299;-27
2024/01/10 07:42:35;;;;;;;1.05;1.02;;;;;;;-4.14;68.67;103172.91;5093802;27;97735;-27
2024/01/10 07:45:04;;;;;;;1.10;1.02;;;;;;;-4.16;68.60;103177.25;5075487;27;96504;-29
2024/01/10 07:47:34;;;;;;;0.25;0.25;;;;;;;-4.14;68.30;103177.31;5093733;27;96822;-27
2024/01/10 07:49:59;;;;;;;1.08;0.98;;;;;;;-4.11;68.84;103180.06;5075084;27;101302;-27
2024/01/10 07:52:25;;;;;;;0.57;0.57;;;;;;;-4.04;68.59;103189.13;5093458;27;99190;-27
2024/01/10 07:54:50;;;;;;;0.43;0.20;;;;;;;-4.09;68.41;103179.28;5093078;27;96729;-27
2024/01/10 07:57:18;;;;;;;0.50;0.50;;;;;;;-4.13;67.94;103182.66;5092447;27;97163;-27
2024/01/10 07:59:44;;;;;;;0.10;0.10;;;;;;;-4.04;67.94;103203.25;5092811;27;99369;-28
2024/01/10 08:02:10;;;;;;;0.00;0.00;;;;;;;-4.19;67.97;103184.19;5074257;27;101433;-27
2024/01/10 08:04:35;;;;;;;0.40;0.40;;;;;;;-4.22;68.23;103189.34;5074986;27;96653;-27
2024/01/10 08:07:01;;;;;;;0.65;0.60;;;;;;;-4.30;67.82;103194.34;5092699;27;96862;-27
2024/01/10 08:09:26;;;;;;;0.08;0.08;;;;;;;-4.26;68.10;103198.94;5093585;27;98391;-27
2024/01/10 08:11:51;;;;;;;0.00;0.00;;;;;;;-4.28;67.89;103200.59;5093469;27;97368;-27
2024/01/10 08:14:17;;;;;;;0.43;0.40;;;;;;;-4.32;68.16;103199.56;5091789;27;97132;-28
2024/01/10 08:16:42;;;;;;;1.00;0.82;;;;;;;-4.35;68.40;103188.88;5091643;27;97301;-28
2024/01/10 08:19:08;;;;;;;4.28;0.73;;;;;;;-4.31;68.39;103190.81;5090883;27;98680;-28
2024/01/10 08:21:34;;;;;;;0.73;0.65;;;;;;;-4.30;68.11;103189.06;5070968;27;100588;-28
2024/01/10 08:24:01;;;;;;;1.10;0.85;;;;;;;-4.23;68.23;103198.13;5071689;27;97106;-29
2024/01/10 08:26:27;;;;;;;0.88;0.52;;;;;;;-4.30;68.41;103189.97;5072054;27;97252;-28
2024/01/10 08:28:52;;;;;;;0.00;0.00;;;;;;;-4.30;68.39;103182.03;5092027;27;97422;-27
2024/01/10 08:31:18;;;;;;;0.00;0.00;;;;;;;-4.28;68.25;103190.03;5093109;27;97849;-27
2024/01/10 08:33:43;;;;;;;0.10;0.10;;;;;;;-4.25;68.21;103189.25;5074307;27;96532;-27
2024/01/10 08:36:09;;;;;;;0.00;0.00;;;;;;;-4.30;67.99;103165.25;5093076;27;96751;-27
2024/01/10 08:38:36;;;;;;;0.00;0.00;;;;;;;-4.23;68.24;103176.97;5074742;27;98946;-27
2024/01/10 08:41:03;;;;;;;0.13;0.13;;;;;;;-4.20;68.33;103177.97;5093399;27;97959;-27
2024/01/10 08:43:28;;;;;;;0.22;0.20;;;;;;;-4.23;68.00;103171.69;5074440;27;96854;-27
2024/01/10 08:45:54;;;;;;;0.03;0.03;;;;;;;-4.37;67.89;103163.22;5092798;27;96775;-27
2024/01/10 08:48:19;;;;;;;0.75;0.75;;;;;;;-4.24;68.19;103154.91;5092584;27;97371;-27
2024/01/10 08:50:44;;;;;;;0.90;0.90;;;;;;;-4.30;67.68;103163.50;5092544;27;100808;-27
2024/01/10 08:53:10;;;;;;;2.60;2.28;;;;;;;-4.26;67.57;103164.53;5093085;27;96608;-27
2024/01/10 08:55:37;;;;;;;0.00;0.00;;;;;;;-4.17;67.65;103167.53;5074472;27;96883;-27
2024/01/10 08:58:03;;;;;;;2.75;1.50;;;;;;;-4.14;67.31;103166.72;5091996;27;97883;-27
2024/01/10 09:00:28;;;;;;;0.20;0.20;;;;;;;-4.08;67.55;103169.59;5092903;27;97871;-28
2024/01/10 09:02:54;;;;;;;2.05;1.35;;;;;;;-3.98;67.67;103173.47;5092504;27;97080;-27
2024/01/10 09:05:21;;;;;;;0.93;0.68;;;;;;;-4.01;66.92;103168.06;5074537;27;96944;-27
2024/01/10 09:07:47;;;;;;;1.30;1.20;;;;;;;-3.97;66.89;103170.88;5092606;27;99320;-28
2024/01/10 09:10:12;;;;;;;0.28;0.28;;;;;;;-4.07;66.52;103168.75;5074167;27;102024;-28
2024/01/10 09:12:39;;;;;;;0.10;0.10;;;;;;;-4.12;66.73;103175.63;5092242;27;96463;-28
2024/01/10 09:15:08;;;;;;;0.30;0.30;;;;;;;-4.08;66.84;103175.75;5092673;27;96837;-27
2024/01/10 09:17:33;;;;;;;0.10;0.10;;;;;;;-4.01;66.71;103190.13;5073716;27;100994;-27
2024/01/10 09:19:58;;;;;;;0.47;0.47;;;;;;;-3.94;66.63;103188.63;5095882;27;97751;-27
2024/01/10 09:22:24;;;;;;;0.40;0.40;;;;;;;-3.88;66.50;103184.44;5096206;27;96641;-27
2024/01/10 09:24:49;;;;;;;0.25;0.25;;;;;;;-3.89;66.20;103187.91;5096491;27;96769;-28
2024/01/10 09:27:14;;;;;;;2.33;1.15;;;;;;;-3.89;66.43;103174.69;5095976;27;97923;-28
2024/01/10 09:29:40;;;;;;;1.48;1.38;;;;;;;-3.78;65.96;103187.44;5096596;27;97906;-27
2024/01/10 09:32:05;;;;;;;1.08;0.93;;;;;;;-3.73;66.15;103181.44;5096011;27;96587;-27
2024/01/10 09:34:32;;;;;;;0.30;0.30;;;;;;;-3.74;65.33;103189.31;5096217;27;97219;-27
2024/01/10 09:36:57;;;;;;;0.50;0.50;;;;;;;-3.74;65.51;103182.28;5095559;27;98013;-27
2024/01/10 09:39:23;;;;;;;0.17;0.17;;;;;;;-3.72;65.77;103180.59;5096318;27;96597;-27
2024/01/10 09:41:50;;;;;;;0.10;0.10;;;;;;;-3.66;64.86;103175.50;5095927;27;96591;-27
2024/01/10 09:44:17;;;;;;;0.95;0.90;;;;;;;-3.55;65.32;103175.88;5077247;27;96827;-27
2024/01/10 09:46:46;;;;;;;2.10;1.42;;;;;;;-3.53;63.87;103174.16;5076807;27;101467;-27
2024/01/10 09:49:11;;;;;;;0.40;0.40;;;;;;;-3.41;63.84;103181.63;5077000;27;101036;-27
2024/01/10 09:51:37;;;;;;;0.60;0.55;;;;;;;-3.33;64.54;103181.91;5095431;27;96653;-27
2024/01/10 09:54:04;;;;;;;0.93;0.85;;;;;;;-3.18;64.67;103182.41;5077510;27;96968;-27
2024/01/10 09:56:30;;;;;;;0.17;0.17;;;;;;;-3.11;64.09;103175.56;5060252;27;100811;-27
2024/01/10 09:58:58;;;;;;;0.30;0.22;;;;;;;-3.07;63.84;103170.41;5076927;27;100866;-27
2024/01/10 10:01:24;;;;;;;0.52;0.52;;;;;;;-2.96;63.02;103185.75;5072492;27;96913;-27
2024/01/10 10:03:50;;;;;;;0.17;0.17;;;;;;;-2.92;62.81;103177.94;5074922;27;96605;-27
2024/01/10 10:06:16;;;;;;;0.25;0.25;;;;;;;-2.84;63.12;103172.88;5073444;27;100924;-27
2024/01/10 10:08:41;;;;;;;0.90;0.57;;;;;;;-2.85;62.77;103174.63;5074887;27;97785;-27
2024/01/10 10:11:12;;;;;;;0.52;0.52;;;;;;;-2.75;62.75;103183.78;5074758;27;96714;-28
2024/01/10 10:13:41;;;;;;;0.77;0.65;;;;;;;-2.64;61.32;103189.44;5073476;27;96716;-27
2024/01/10 10:16:09;;;;;;;0.10;0.10;;;;;;;-2.39;61.10;103191.06;5073034;27;101821;-27
2024/01/10 10:18:35;;;;;;;1.05;1.05;;;;;;;-2.30;60.69;103172.75;5073584;27;100855;-27
2024/01/10 10:21:15;;;;;;;0.45;0.35;;;;;;;-2.17;60.63;103180.22;5075239;27;96557;-27
2024/01/10 10:23:42;;;;;;;0.00;0.00;;;;;;;-2.07;61.58;103160.16;5073425;27;96602;-28
2024/01/10 10:26:19;;;;;;;0.43;0.30;;;;;;;-1.88;61.48;103181.88;5072499;27;101268;-27
2024/01/10 10:28:46;;;;;;;0.05;0.05;;;;;;;-1.93;60.31;103171.16;5074711;27;97829;-27
2024/01/10 10:31:12;;;;;;;0.00;0.00;;;;;;;-1.83;60.72;103167.00;5072445;27;96868;-28
2024/01/10 10:33:37;;;;;;;0.25;0.25;;;;;;;-1.68;60.13;103172.72;5074377;27;96772;-27
2024/01/10 10:36:03;;;;;;;0.70;0.70;;;;;;;-1.60;59.23;103164.94;5074509;27;97985;-28
2024/01/10 10:38:29;;;;;;;0.05;0.05;;;;;;;-1.59;59.67;103162.31;5074836;27;97365;-27
2024/01/10 10:40:55;;;;;;;1.30;1.20;;;;;;;-1.42;60.73;103175.16;5074189;27;96718;-27
2024/01/10 10:43:21;;;;;;;5.90;3.22;;;;;;;-1.42;59.67;103143.25;5073332;27;96894;-27
2024/01/10 10:45:48;;;;;;;2.42;2.17;;;;;;;-1.19;58.55;103163.34;5072593;27;101460;-27
2024/01/10 10:48:19;;;;;;;1.27;1.17;;;;;;;-1.11;57.33;103163.53;5072501;27;102264;-28
2024/01/10 10:50:54;;;;;;;3.05;2.75;;;;;;;-0.85;57.19;103142.84;5072513;27;97516;-28
2024/01/10 10:53:22;;;;;;;4.47;1.17;;;;;;;-0.57;55.60;103154.09;5072758;27;96862;-29
2024/01/10 10:55:50;;;;;;;0.47;0.47;;;;;;;-0.43;56.06;103148.22;5072551;27;99033;-28
2024/01/10 10:58:15;;;;;;;1.52;0.98;;;;;;;-0.54;55.65;103147.09;5074105;27;97868;-27
2024/01/10 11:00:41;;;;;;;0.60;0.32;;;;;;;-0.53;55.19;103147.97;5073929;27;96485;-27
2024/01/10 11:03:11;;;;;;;1.83;1.10;;;;;;;-0.54;54.43;103143.53;5072426;27;96781;-27
2024/01/10 11:05:40;;;;;;;1.75;0.70;;;;;;;-0.33;56.85;103149.31;5072309;27;101150;-27
2024/01/10 11:08:10;;;;;;;0.13;0.13;;;;;;;-0.16;56.62;103149.66;5072451;27;101561;-27
2024/01/10 11:10:39;;;;;;;0.40;0.38;;;;;;;0.09;54.78;103147.47;5072574;27;96664;-29
2024/01/10 11:13:28;;;;;;;2.03;1.02;;;;;;;0.20;52.80;103157.44;5072363;27;96728;-27
2024/01/10 11:16:16;;;;;;;0.60;0.57;;;;;;;0.24;54.02;103142.44;5073113;27;99426;-27
2024/01/10 11:18:58;;;;;;;0.80;0.80;;;;;;;0.27;54.07;103136.25;5071899;27;101522;-27